Time;durP1;ratioP1;P1;durP2;ratioP2;P2;SDS_P1;SDS_P2;PMS_P1;PMS_P2;Temp;Humidity;BMP_temperature;BMP_pressure;BME280_temperature;BME280_humidity;BME280_pressure;Samples;Min_cycle;Max_cycle;Signal;HPM_P1;HPM_P2
2021/03/19 00:01:50;;;;;;;9.27;2.33;;;2.10;99.90;;;;;;5128290;27;20114;-76
2021/03/19 00:04:16;;;;;;;11.75;2.60;;;2.10;99.90;;;;;;5133619;27;20049;-76
2021/03/19 00:06:43;;;;;;;11.93;2.40;;;2.10;99.90;;;;;;5136193;27;20035;-78
2021/03/19 00:09:11;;;;;;;9.18;2.40;;;2.10;99.90;;;;;;5132401;27;20043;-75
2021/03/19 00:11:37;;;;;;;13.77;2.20;;;2.10;99.90;;;;;;5131777;27;20112;-75
2021/03/19 00:14:04;;;;;;;10.77;2.20;;;2.10;99.90;;;;;;5134270;27;20680;-75
2021/03/19 00:16:30;;;;;;;10.05;2.70;;;2.10;99.90;;;;;;5154055;27;20163;-75
2021/03/19 00:18:57;;;;;;;12.05;2.28;;;2.00;99.90;;;;;;5135272;27;20414;-75
2021/03/19 00:21:23;;;;;;;13.10;2.35;;;2.00;99.90;;;;;;5137406;27;20031;-75
2021/03/19 00:23:49;;;;;;;9.75;2.20;;;2.00;99.90;;;;;;5154617;27;20383;-76
2021/03/19 00:26:16;;;;;;;14.75;2.55;;;2.00;99.90;;;;;;5137699;27;20089;-75
2021/03/19 00:28:41;;;;;;;11.73;2.10;;;1.90;99.90;;;;;;5154607;27;20049;-75
2021/03/19 00:31:07;;;;;;;11.80;2.25;;;1.90;99.90;;;;;;5154779;27;20466;-75
2021/03/19 00:33:33;;;;;;;7.72;1.88;;;1.90;99.90;;;;;;5136709;27;20042;-75
2021/03/19 00:35:59;;;;;;;9.27;1.95;;;1.90;99.90;;;;;;5136429;27;20038;-75
2021/03/19 00:38:24;;;;;;;15.18;2.30;;;1.90;99.90;;;;;;5154760;27;20525;-76
2021/03/19 00:40:50;;;;;;;12.52;2.42;;;1.90;99.90;;;;;;5155530;27;20113;-75
2021/03/19 00:43:17;;;;;;;8.20;2.20;;;1.80;99.90;;;;;;5155132;27;20043;-76
2021/03/19 00:45:44;;;;;;;15.90;2.38;;;1.80;99.90;;;;;;5154781;27;20122;-75
2021/03/19 00:48:11;;;;;;;12.63;2.72;;;1.80;99.90;;;;;;5153896;27;20477;-75
2021/03/19 00:50:39;;;;;;;11.23;2.30;;;1.80;99.90;;;;;;5154744;27;20046;-75
2021/03/19 00:53:06;;;;;;;7.07;2.10;;;1.80;99.90;;;;;;5134546;27;20081;-76
2021/03/19 00:55:32;;;;;;;7.43;2.30;;;1.70;99.90;;;;;;5153467;27;20050;-75
2021/03/19 00:57:58;;;;;;;14.13;2.33;;;1.70;99.90;;;;;;5153986;27;20031;-76
2021/03/19 01:00:25;;;;;;;16.20;2.75;;;1.70;99.90;;;;;;5154154;27;20046;-76
2021/03/19 01:02:51;;;;;;;10.18;2.45;;;1.70;99.90;;;;;;5154837;27;20465;-76
2021/03/19 01:05:21;;;;;;;12.32;2.67;;;1.60;99.90;;;;;;5135972;27;20087;-76
2021/03/19 01:07:48;;;;;;;11.73;2.55;;;1.60;99.90;;;;;;5151455;27;20038;-75
2021/03/19 01:10:18;;;;;;;13.73;2.53;;;1.60;99.90;;;;;;5154673;27;20043;-75
2021/03/19 01:12:44;;;;;;;21.02;2.80;;;1.60;99.90;;;;;;5134400;27;20077;-75
2021/03/19 01:15:11;;;;;;;14.85;2.70;;;1.50;99.90;;;;;;5154681;27;20074;-75
2021/03/19 01:17:37;;;;;;;18.60;2.60;;;1.50;99.90;;;;;;5134817;27;20038;-75
2021/03/19 01:20:11;;;;;;;12.77;2.65;;;1.50;99.90;;;;;;5154611;27;20389;-75
2021/03/19 01:22:37;;;;;;;19.08;3.13;;;1.50;99.90;;;;;;5154822;27;20038;-75
2021/03/19 01:25:11;;;;;;;17.65;3.35;;;1.50;99.90;;;;;;5134357;27;20031;-76
2021/03/19 01:27:37;;;;;;;16.00;3.25;;;1.50;99.90;;;;;;5135400;27;20022;-75
2021/03/19 01:30:09;;;;;;;14.70;3.15;;;1.50;99.90;;;;;;5154442;27;20546;-75
2021/03/19 01:32:36;;;;;;;14.68;3.10;;;1.50;99.90;;;;;;5134923;27;20039;-75
2021/03/19 01:35:02;;;;;;;13.25;3.13;;;1.50;99.90;;;;;;5135449;27;20485;-76
2021/03/19 01:37:28;;;;;;;14.82;3.25;;;1.50;99.90;;;;;;5153875;27;20499;-75
2021/03/19 01:39:54;;;;;;;14.60;3.30;;;1.50;99.90;;;;;;5143463;27;20034;-76
2021/03/19 01:42:20;;;;;;;17.73;3.30;;;1.50;99.90;;;;;;5146549;27;20035;-76
2021/03/19 01:45:07;;;;;;;17.10;3.20;;;1.50;99.90;;;;;;5153599;27;20035;-74
2021/03/19 01:48:10;;;;;;;16.92;3.45;;;1.50;99.90;;;;;;5134024;27;20035;-75
2021/03/19 01:51:13;;;;;;;15.82;3.50;;;1.50;99.90;;;;;;5151336;27;20115;-76
2021/03/19 01:54:16;;;;;;;9.80;3.00;;;1.40;99.90;;;;;;5153412;27;20088;-76
2021/03/19 01:57:19;;;;;;;20.23;3.78;;;1.40;99.90;;;;;;5136458;27;20035;-76
2021/03/19 02:00:22;;;;;;;15.38;3.67;;;1.40;99.90;;;;;;5154157;27;20186;-75
2021/03/19 02:03:25;;;;;;;13.52;3.15;;;1.30;99.90;;;;;;5144213;27;20034;-74
2021/03/19 02:06:28;;;;;;;12.43;3.50;;;1.30;99.90;;;;;;5141279;27;20026;-75
2021/03/19 02:09:32;;;;;;;11.43;2.97;;;1.30;99.90;;;;;;5152357;27;20489;-74
2021/03/19 02:12:35;;;;;;;12.00;2.58;;;1.20;99.90;;;;;;5146684;27;20030;-75
2021/03/19 02:15:38;;;;;;;10.32;2.70;;;1.20;99.90;;;;;;5147737;27;20043;-75
2021/03/19 02:18:41;;;;;;;12.68;3.08;;;1.10;99.90;;;;;;5149954;27;20054;-74
2021/03/19 02:21:45;;;;;;;12.82;2.60;;;1.00;99.90;;;;;;5135289;27;20039;-73
2021/03/19 02:24:49;;;;;;;20.42;3.42;;;1.10;99.90;;;;;;5117861;27;20039;-75
2021/03/19 02:27:52;;;;;;;15.93;3.40;;;1.10;99.90;;;;;;5149962;27;20089;-74
2021/03/19 02:30:59;;;;;;;14.88;3.35;;;1.20;99.90;;;;;;5153113;27;20083;-74
2021/03/19 02:33:26;;;;;;;16.13;3.70;;;1.40;99.90;;;;;;5031159;28;20040;-74
2021/03/19 02:35:55;;;;;;;13.13;2.75;;;1.40;99.90;;;;;;5033299;28;20052;-74
2021/03/19 02:38:21;;;;;;;17.00;3.17;;;1.50;99.90;;;;;;5052887;28;20068;-74
2021/03/19 02:40:48;;;;;;;18.77;2.60;;;1.60;99.90;;;;;;5033027;28;20057;-74
2021/03/19 02:43:18;;;;;;;11.20;2.42;;;1.60;99.90;;;;;;5048715;28;20122;-75
2021/03/19 02:45:44;;;;;;;9.52;2.80;;;1.70;99.90;;;;;;5048330;28;20045;-74
2021/03/19 02:48:11;;;;;;;16.52;2.88;;;1.70;99.90;;;;;;5032319;28;20048;-74
2021/03/19 02:50:38;;;;;;;16.23;2.53;;;1.80;99.90;;;;;;5048513;28;20045;-74
2021/03/19 02:53:04;;;;;;;18.40;3.97;;;1.80;99.90;;;;;;5049132;28;20134;-74
2021/03/19 02:55:30;;;;;;;18.25;3.03;;;1.80;99.90;;;;;;5048805;28;20094;-75
2021/03/19 02:57:56;;;;;;;12.07;2.70;;;1.90;99.90;;;;;;5048585;28;20060;-74
2021/03/19 03:00:24;;;;;;;13.70;2.92;;;1.80;99.90;;;;;;5031613;28;20059;-74
2021/03/19 03:02:51;;;;;;;17.92;2.63;;;1.90;99.90;;;;;;5052818;28;20174;-74
2021/03/19 03:05:18;;;;;;;16.75;2.95;;;1.90;99.90;;;;;;5052974;28;20115;-75
2021/03/19 03:07:44;;;;;;;21.63;3.40;;;1.90;99.90;;;;;;5052865;28;20041;-74
2021/03/19 03:10:13;;;;;;;11.93;2.65;;;1.80;99.90;;;;;;5107795;27;20118;-74
2021/03/19 03:12:39;;;;;;;18.73;3.00;;;1.80;99.90;;;;;;5157010;27;20423;-75
2021/03/19 03:15:07;;;;;;;16.27;3.10;;;1.70;99.90;;;;;;5156541;27;20043;-74
2021/03/19 03:17:33;;;;;;;30.35;3.17;;;1.60;99.90;;;;;;5155844;27;20034;-75
2021/03/19 03:20:19;;;;;;;12.65;2.92;;;1.60;99.90;;;;;;5156828;27;20565;-74
2021/03/19 03:22:45;;;;;;;21.55;3.10;;;1.50;99.90;;;;;;5147455;27;20311;-74
2021/03/19 03:25:13;;;;;;;18.85;3.10;;;1.50;99.90;;;;;;5157039;27;20076;-75
2021/03/19 03:27:41;;;;;;;27.90;3.63;;;1.50;99.90;;;;;;5137546;27;20047;-75
2021/03/19 03:30:13;;;;;;;21.67;3.42;;;1.40;99.90;;;;;;5156369;27;20558;-74
2021/03/19 03:32:40;;;;;;;21.65;3.80;;;1.30;99.90;;;;;;5137853;27;20095;-76
2021/03/19 03:35:09;;;;;;;18.30;3.42;;;1.30;99.90;;;;;;5156694;27;20054;-75
2021/03/19 03:37:35;;;;;;;21.60;3.10;;;1.30;99.90;;;;;;5155771;27;20042;-75
2021/03/19 03:40:03;;;;;;;23.15;3.50;;;1.20;99.90;;;;;;5139297;27;20058;-74
2021/03/19 03:42:29;;;;;;;20.42;3.42;;;1.20;99.90;;;;;;5137087;27;20119;-74
2021/03/19 03:44:55;;;;;;;19.15;3.72;;;1.30;99.90;;;;;;5157518;27;20099;-74
2021/03/19 03:47:22;;;;;;;23.00;4.03;;;1.20;99.90;;;;;;5138352;27;20054;-74
2021/03/19 03:49:48;;;;;;;19.05;3.88;;;1.20;99.90;;;;;;5155244;27;20047;-75
2021/03/19 03:52:17;;;;;;;22.17;3.80;;;1.20;99.90;;;;;;5137213;27;20493;-75
2021/03/19 03:54:44;;;;;;;17.75;4.07;;;1.20;99.90;;;;;;5155044;27;20091;-75
2021/03/19 03:57:10;;;;;;;21.63;4.32;;;1.10;99.90;;;;;;5155177;27;20474;-75
2021/03/19 03:59:36;;;;;;;23.52;4.35;;;1.10;99.90;;;;;;5156049;27;20046;-75
2021/03/19 04:02:20;;;;;;;24.35;4.32;;;1.10;99.90;;;;;;5137558;27;20047;-75
2021/03/19 04:04:49;;;;;;;18.77;3.83;;;1.10;99.90;;;;;;5155129;27;20072;-76
2021/03/19 04:07:17;;;;;;;20.45;4.50;;;1.10;99.90;;;;;;5155476;27;20054;-75
2021/03/19 04:09:44;;;;;;;20.02;4.40;;;1.00;99.90;;;;;;5137838;27;20423;-75
2021/03/19 04:12:11;;;;;;;20.80;4.05;;;1.00;99.90;;;;;;5137297;27;20076;-75
2021/03/19 04:14:38;;;;;;;29.85;4.80;;;1.00;99.90;;;;;;5155737;27;20116;-75
2021/03/19 04:17:22;;;;;;;26.90;5.38;;;1.00;99.90;;;;;;5137189;27;20046;-75
2021/03/19 04:19:49;;;;;;;22.00;4.60;;;1.00;99.90;;;;;;5151448;27;20501;-76
2021/03/19 04:22:17;;;;;;;18.77;4.10;;;1.00;99.90;;;;;;5155093;27;20364;-75
2021/03/19 04:24:44;;;;;;;22.38;4.75;;;1.00;99.90;;;;;;5156216;27;20042;-75
2021/03/19 04:27:17;;;;;;;26.45;4.97;;;1.00;99.90;;;;;;5155528;27;20096;-75
2021/03/19 04:29:44;;;;;;;18.95;4.25;;;1.10;99.90;;;;;;5136175;27;20087;-75
2021/03/19 04:32:10;;;;;;;19.48;4.72;;;1.00;99.90;;;;;;5155486;27;20379;-74
2021/03/19 04:34:36;;;;;;;21.15;4.63;;;1.10;99.90;;;;;;5155331;27;20051;-75
2021/03/19 04:37:05;;;;;;;22.35;4.55;;;1.10;99.90;;;;;;5139263;27;20043;-75
2021/03/19 04:39:32;;;;;;;24.60;4.65;;;1.10;99.90;;;;;;5155631;27;20092;-75
2021/03/19 04:42:03;;;;;;;19.65;4.70;;;1.10;99.90;;;;;;5136753;27;20046;-75
2021/03/19 04:44:36;;;;;;;21.63;4.35;;;1.00;99.90;;;;;;5136484;27;20481;-75
2021/03/19 04:47:05;;;;;;;34.13;5.68;;;1.10;99.90;;;;;;5134769;27;20050;-75
2021/03/19 04:49:32;;;;;;;25.67;4.80;;;1.00;99.90;;;;;;5155222;27;20047;-75
2021/03/19 04:52:00;;;;;;;24.73;5.75;;;1.00;99.90;;;;;;5135299;27;20038;-74
2021/03/19 04:54:28;;;;;;;28.13;5.60;;;1.10;99.90;;;;;;5121729;27;20051;-75
2021/03/19 04:56:54;;;;;;;29.02;4.93;;;1.10;99.90;;;;;;5154160;27;20039;-75
2021/03/19 04:59:21;;;;;;;19.65;5.03;;;1.00;99.90;;;;;;5135803;27;20099;-74
2021/03/19 05:01:53;;;;;;;23.92;5.22;;;1.00;99.90;;;;;;5156216;27;20047;-76
2021/03/19 05:04:23;;;;;;;18.10;5.28;;;1.00;99.90;;;;;;5137036;27;20043;-75
2021/03/19 05:06:52;;;;;;;20.55;5.07;;;1.00;99.90;;;;;;5139883;27;20051;-75
2021/03/19 05:09:19;;;;;;;14.82;5.07;;;1.00;99.90;;;;;;5154383;27;20050;-74
2021/03/19 05:11:46;;;;;;;17.25;4.90;;;1.10;99.90;;;;;;5155343;27;20100;-76
2021/03/19 05:14:13;;;;;;;26.33;5.47;;;1.10;99.90;;;;;;5154254;27;20046;-76
2021/03/19 05:16:39;;;;;;;21.27;5.63;;;1.00;99.90;;;;;;5154415;27;20105;-75
2021/03/19 05:19:05;;;;;;;18.50;5.95;;;1.00;99.90;;;;;;5153503;27;20523;-75
2021/03/19 05:21:32;;;;;;;21.05;6.55;;;1.00;99.90;;;;;;5136133;27;20080;-75
2021/03/19 05:23:58;;;;;;;19.38;6.10;;;1.00;99.90;;;;;;5153778;27;20119;-75
2021/03/19 05:26:25;;;;;;;26.17;6.03;;;1.10;99.90;;;;;;5137505;27;20099;-75
2021/03/19 05:28:51;;;;;;;24.95;6.22;;;1.10;99.90;;;;;;5152878;27;20406;-76
2021/03/19 05:31:17;;;;;;;16.85;6.40;;;1.10;99.90;;;;;;5135653;27;20051;-74
2021/03/19 05:33:50;;;;;;;24.77;6.20;;;1.10;99.90;;;;;;5135099;27;20065;-75
2021/03/19 05:36:20;;;;;;;22.33;5.93;;;1.10;99.90;;;;;;5152775;27;20042;-74
2021/03/19 05:38:47;;;;;;;20.75;6.13;;;1.10;99.90;;;;;;5130044;27;20043;-74
2021/03/19 05:41:15;;;;;;;21.20;5.85;;;1.10;99.90;;;;;;5129104;27;20059;-74
2021/03/19 05:44:02;;;;;;;20.58;6.07;;;1.10;99.90;;;;;;5147107;27;20530;-74
2021/03/19 05:46:36;;;;;;;17.17;6.22;;;1.10;99.90;;;;;;5147409;27;20050;-75
2021/03/19 05:49:08;;;;;;;16.63;5.78;;;1.10;99.90;;;;;;5128599;27;20046;-75
2021/03/19 05:51:44;;;;;;;20.48;5.88;;;1.20;99.90;;;;;;5126337;27;20096;-76
2021/03/19 05:54:26;;;;;;;18.48;6.13;;;1.10;99.90;;;;;;5132699;27;20039;-75
2021/03/19 05:57:24;;;;;;;25.77;6.15;;;1.10;99.90;;;;;;5132153;27;20108;-74
2021/03/19 05:59:54;;;;;;;18.05;5.90;;;1.20;99.90;;;;;;5119317;27;20045;-75
2021/03/19 06:02:27;;;;;;;19.45;6.28;;;1.10;99.90;;;;;;5151554;27;20489;-74
2021/03/19 06:05:08;;;;;;;22.13;6.28;;;1.10;99.90;;;;;;5134719;27;20115;-75
2021/03/19 06:07:46;;;;;;;24.25;6.18;;;1.20;99.90;;;;;;5149724;27;20100;-74
2021/03/19 06:10:36;;;;;;;21.38;6.70;;;1.20;99.90;;;;;;5153176;27;20131;-73
2021/03/19 06:13:19;;;;;;;20.08;6.35;;;1.20;99.90;;;;;;5134916;27;20144;-73
2021/03/19 06:15:52;;;;;;;18.83;6.60;;;1.20;99.90;;;;;;5124744;27;20475;-72
2021/03/19 06:18:39;;;;;;;15.25;6.15;;;1.30;99.90;;;;;;5127094;27;20100;-72
2021/03/19 06:21:13;;;;;;;23.95;7.18;;;1.30;99.90;;;;;;5111365;28;20112;-73
2021/03/19 06:23:46;;;;;;;20.33;6.43;;;1.40;99.90;;;;;;5128931;27;20095;-72
2021/03/19 06:26:32;;;;;;;23.60;7.13;;;1.40;99.90;;;;;;5130682;27;20054;-75
2021/03/19 06:29:42;;;;;;;15.05;6.97;;;1.50;99.90;;;;;;5131686;27;20112;-74
2021/03/19 06:32:31;;;;;;;17.17;7.38;;;1.60;99.90;;;;;;5124524;27;20123;-74
2021/03/19 06:35:10;;;;;;;23.88;7.15;;;1.60;99.90;;;;;;5127856;27;20048;-72
2021/03/19 06:37:55;;;;;;;15.25;7.18;;;1.70;99.90;;;;;;5130574;27;20058;-75
2021/03/19 06:40:41;;;;;;;21.02;6.63;;;1.80;99.90;;;;;;5128524;27;20031;-74
2021/03/19 06:43:29;;;;;;;17.73;6.40;;;2.00;99.90;;;;;;5118401;27;20042;-73
2021/03/19 06:46:34;;;;;;;19.13;6.68;;;2.10;99.90;;;;;;5112632;27;20078;-72
2021/03/19 06:49:23;;;;;;;14.80;6.20;;;2.30;99.90;;;;;;5114021;27;20477;-74
2021/03/19 06:52:17;;;;;;;15.25;6.00;;;2.50;99.90;;;;;;5129785;27;20043;-73
2021/03/19 06:55:05;;;;;;;15.52;6.32;;;2.50;99.90;;;;;;5116215;27;20070;-74
2021/03/19 06:57:50;;;;;;;17.73;6.22;;;2.60;99.90;;;;;;5131137;28;20046;-75
2021/03/19 07:00:41;;;;;;;12.35;5.63;;;2.70;99.90;;;;;;5116228;28;20043;-74
2021/03/19 07:04:02;;;;;;;13.40;6.10;;;2.80;99.90;;;;;;5115921;28;20039;-75
2021/03/19 07:07:00;;;;;;;15.70;5.38;;;2.80;99.90;;;;;;5124022;28;20047;-75
2021/03/19 07:10:26;;;;;;;20.40;5.60;;;2.90;99.90;;;;;;5121511;27;20157;-74
2021/03/19 07:13:39;;;;;;;12.13;5.75;;;3.00;99.90;;;;;;5128424;28;20057;-74
2021/03/19 07:16:52;;;;;;;14.23;4.93;;;3.00;99.90;;;;;;5137032;27;20142;-75
2021/03/19 07:19:30;;;;;;;13.73;4.88;;;3.10;99.90;;;;;;5133516;27;20405;-74
2021/03/19 07:22:10;;;;;;;13.85;5.07;;;3.10;99.90;;;;;;5130264;27;20031;-73
2021/03/19 07:25:33;;;;;;;12.98;4.90;;;3.20;99.90;;;;;;5111938;28;20047;-73
2021/03/19 07:28:31;;;;;;;12.80;5.13;;;3.20;99.90;;;;;;5129356;28;20096;-76
2021/03/19 07:31:15;;;;;;;12.18;4.80;;;3.30;99.90;;;;;;5131277;28;20418;-74
2021/03/19 07:33:53;;;;;;;12.80;5.25;;;3.40;99.90;;;;;;5118900;27;20504;-76
2021/03/19 07:36:28;;;;;;;13.80;5.07;;;3.50;99.90;;;;;;5130096;28;20035;-77
2021/03/19 07:39:41;;;;;;;10.25;4.30;;;3.50;99.90;;;;;;5116599;28;20555;-75
2021/03/19 07:42:58;;;;;;;9.40;4.85;;;3.60;99.90;;;;;;5130994;28;20046;-76
2021/03/19 07:46:24;;;;;;;10.10;4.57;;;3.60;99.90;;;;;;5116400;27;20078;-78
2021/03/19 07:49:37;;;;;;;9.23;4.03;;;3.70;99.90;;;;;;5119461;27;20142;-77
2021/03/19 07:52:26;;;;;;;9.48;4.72;;;3.80;99.90;;;;;;5134208;27;20478;-75
2021/03/19 07:55:39;;;;;;;10.55;3.83;;;3.90;99.90;;;;;;5134357;27;20051;-76
2021/03/19 07:58:27;;;;;;;9.90;4.32;;;4.00;99.90;;;;;;5133534;27;20069;-76
2021/03/19 08:02:07;;;;;;;14.95;4.55;;;4.00;99.90;;;;;;5141963;27;20130;-75
2021/03/19 08:05:15;;;;;;;6.03;3.28;;;4.00;99.90;;;;;;5048543;28;22082;-75
2021/03/19 08:08:15;;;;;;;15.23;4.50;;;4.10;99.90;;;;;;5032406;28;20059;-76
2021/03/19 08:11:16;;;;;;;9.07;3.97;;;4.20;99.90;;;;;;5020834;28;20053;-75
2021/03/19 08:14:13;;;;;;;9.82;3.80;;;4.20;99.90;;;;;;5019269;28;20658;-77
2021/03/19 08:17:29;;;;;;;10.32;3.83;;;4.20;99.90;;;;;;5020403;28;20072;-76
2021/03/19 08:20:54;;;;;;;11.45;3.50;;;4.40;99.90;;;;;;5028538;28;20135;-76
2021/03/19 08:23:54;;;;;;;4.82;2.45;;;4.40;99.90;;;;;;5020775;28;20045;-75
2021/03/19 08:26:55;;;;;;;6.15;2.65;;;4.50;99.90;;;;;;5048494;28;20049;-74
2021/03/19 08:29:51;;;;;;;11.45;2.92;;;4.50;99.90;;;;;;5034302;28;20388;-75
2021/03/19 08:32:58;;;;;;;6.30;2.13;;;4.50;99.90;;;;;;5008910;28;20060;-75
2021/03/19 08:36:00;;;;;;;8.50;2.67;;;4.60;99.90;;;;;;5093278;27;20058;-75
2021/03/19 08:38:51;;;;;;;7.05;3.00;;;4.60;99.90;;;;;;5122452;27;20490;-75
2021/03/19 08:41:48;;;;;;;3.90;2.10;;;4.70;99.90;;;;;;5114698;27;20043;-75
2021/03/19 08:44:37;;;;;;;3.80;2.03;;;4.80;99.90;;;;;;5111399;27;20544;-75
2021/03/19 08:47:35;;;;;;;3.92;2.20;;;5.00;99.90;;;;;;5112783;27;20039;-75
2021/03/19 08:50:27;;;;;;;7.72;2.50;;;4.90;99.90;;;;;;5125128;27;20075;-75
2021/03/19 08:53:21;;;;;;;6.47;2.10;;;5.00;99.90;;;;;;5125159;27;20055;-75
2021/03/19 08:56:10;;;;;;;3.33;1.60;;;5.00;99.90;;;;;;5111936;27;20035;-75
2021/03/19 08:58:56;;;;;;;4.05;2.10;;;5.10;99.90;;;;;;5124816;27;20424;-75
2021/03/19 09:01:47;;;;;;;7.63;2.00;;;5.20;99.90;;;;;;5113664;27;20122;-76
2021/03/19 09:04:52;;;;;;;3.67;1.90;;;5.20;99.90;;;;;;5118489;27;20043;-77
2021/03/19 09:07:17;;;;;;;6.95;2.10;;;5.20;99.90;;;;;;5125582;27;20027;-75
2021/03/19 09:10:19;;;;;;;4.72;2.00;;;5.20;99.90;;;;;;5125566;27;20143;-75
2021/03/19 09:13:08;;;;;;;7.78;2.38;;;5.30;99.90;;;;;;5109673;27;20370;-76
2021/03/19 09:16:22;;;;;;;4.80;2.40;;;5.40;99.90;;;;;;5138690;27;20118;-75
2021/03/19 09:18:49;;;;;;;4.43;2.10;;;5.50;99.90;;;;;;5126901;27;20123;-75
2021/03/19 09:21:38;;;;;;;6.25;1.83;;;5.60;99.90;;;;;;5114280;27;20506;-76
2021/03/19 09:24:24;;;;;;;4.55;2.20;;;5.70;99.90;;;;;;5116084;27;20087;-75
2021/03/19 09:27:30;;;;;;;10.77;2.20;;;5.70;99.90;;;;;;5111162;27;20065;-75
2021/03/19 09:30:22;;;;;;;4.90;1.63;;;5.70;99.90;;;;;;5130675;27;20073;-76
2021/03/19 09:33:31;;;;;;;4.70;2.00;;;5.70;99.90;;;;;;5138221;27;20039;-78
2021/03/19 09:36:57;;;;;;;4.45;2.00;;;5.80;99.90;;;;;;5136020;27;20062;-77
2021/03/19 09:39:55;;;;;;;5.40;1.80;;;5.90;99.90;;;;;;5135755;27;20038;-78
2021/03/19 09:42:21;;;;;;;6.22;1.83;;;5.90;99.90;;;;;;5131579;27;20073;-79
2021/03/19 09:44:52;;;;;;;4.63;1.60;;;6.00;99.90;;;;;;5152869;27;20057;-76
2021/03/19 09:48:00;;;;;;;2.00;1.40;;;6.10;99.90;;;;;;5120526;27;20050;-77
2021/03/19 09:50:34;;;;;;;1.88;1.27;;;6.10;99.70;;;;;;5132863;27;20485;-77
2021/03/19 09:53:14;;;;;;;2.22;1.30;;;6.30;98.50;;;;;;5152306;27;20393;-76
2021/03/19 09:55:49;;;;;;;3.58;1.23;;;6.20;98.20;;;;;;5151156;27;20509;-77
2021/03/19 09:58:22;;;;;;;3.53;1.20;;;6.30;97.20;;;;;;5143853;27;20043;-77
2021/03/19 10:01:21;;;;;;;2.60;1.40;;;6.40;98.40;;;;;;5149131;27;20166;-76
2021/03/19 10:03:53;;;;;;;2.65;1.60;;;6.50;98.70;;;;;;5131582;27;20145;-77
2021/03/19 10:06:47;;;;;;;1.63;1.08;;;6.50;98.60;;;;;;5135086;27;20134;-77
2021/03/19 10:09:44;;;;;;;5.63;1.55;;;6.50;98.80;;;;;;5134057;27;20469;-77
2021/03/19 10:12:31;;;;;;;5.28;1.60;;;6.40;98.50;;;;;;5131395;27;20042;-77
2021/03/19 10:15:25;;;;;;;2.80;1.40;;;6.50;98.80;;;;;;5121663;27;20098;-76
2021/03/19 10:18:21;;;;;;;3.95;1.30;;;6.60;98.30;;;;;;5132553;27;20058;-76
2021/03/19 10:21:11;;;;;;;2.83;1.20;;;6.70;98.30;;;;;;5115006;27;20486;-76
2021/03/19 10:24:01;;;;;;;2.65;1.30;;;6.80;98.00;;;;;;5136618;27;20050;-76
2021/03/19 10:26:52;;;;;;;4.30;1.10;;;7.00;97.70;;;;;;5110643;27;20054;-76
2021/03/19 10:29:34;;;;;;;4.25;1.40;;;7.10;95.90;;;;;;5126922;27;20546;-76
2021/03/19 10:32:08;;;;;;;3.03;1.40;;;7.10;96.70;;;;;;5145910;27;20462;-76
2021/03/19 10:34:57;;;;;;;3.13;1.27;;;7.10;97.80;;;;;;5126298;27;20512;-77
2021/03/19 10:37:48;;;;;;;4.60;1.40;;;7.20;97.60;;;;;;5135094;27;20038;-76
2021/03/19 10:40:37;;;;;;;3.58;1.70;;;7.20;96.60;;;;;;5126715;27;20054;-78
2021/03/19 10:43:24;;;;;;;8.65;1.77;;;7.20;96.70;;;;;;5152486;27;20030;-78
2021/03/19 10:46:05;;;;;;;4.03;1.10;;;7.40;97.00;;;;;;5133885;27;20549;-80
2021/03/19 10:48:50;;;;;;;2.15;1.20;;;7.50;96.20;;;;;;5148003;27;20086;-77
2021/03/19 10:51:55;;;;;;;1.95;0.85;;;7.40;95.00;;;;;;5122383;27;20058;-78
2021/03/19 10:54:28;;;;;;;3.10;1.35;;;7.70;94.40;;;;;;5150734;27;20039;-81
2021/03/19 10:57:00;;;;;;;3.22;1.20;;;7.80;94.70;;;;;;5133346;27;20043;-80
2021/03/19 10:59:36;;;;;;;2.42;1.10;;;7.80;94.80;;;;;;5152250;27;20048;-82
2021/03/19 11:02:11;;;;;;;5.90;1.00;;;7.90;95.00;;;;;;5147757;27;20046;-83
2021/03/19 11:04:39;;;;;;;;;;;8.00;89.90;;;;;;5139149;27;20041;-79
2021/03/19 11:07:37;;;;;;;1.92;0.90;;;8.10;93.20;;;;;;5134127;27;19922;-80
2021/03/19 11:10:24;;;;;;;2.25;1.15;;;8.40;88.80;;;;;;5105019;27;20050;-80
2021/03/19 11:12:52;;;;;;;1.38;0.70;;;8.30;91.80;;;;;;5129701;27;20042;-78
2021/03/19 11:15:24;;;;;;;1.83;0.90;;;8.30;90.40;;;;;;5129784;27;20088;-79
2021/03/19 11:18:23;;;;;;;1.08;0.70;;;8.30;90.80;;;;;;5149212;27;20041;-77
2021/03/19 11:20:50;;;;;;;1.98;0.60;;;8.70;86.60;;;;;;5130315;27;20041;-77
2021/03/19 11:23:41;;;;;;;1.48;0.80;;;8.30;87.80;;;;;;5124542;27;20054;-78
2021/03/19 11:26:40;;;;;;;2.35;0.98;;;8.30;86.50;;;;;;5137648;27;20375;-79
2021/03/19 11:29:35;;;;;;;1.73;0.85;;;8.30;87.00;;;;;;5036558;28;20148;-77
2021/03/19 11:32:15;;;;;;;2.00;0.95;;;8.50;81.90;;;;;;5033908;28;20053;-78
2021/03/19 11:34:49;;;;;;;4.40;0.80;;;8.60;84.10;;;;;;5031402;28;20053;-79
2021/03/19 11:37:22;;;;;;;2.08;0.75;;;8.80;81.40;;;;;;5051940;28;22317;-77
2021/03/19 11:40:23;;;;;;;4.05;0.82;;;8.70;80.90;;;;;;5020936;28;20072;-78
2021/03/19 11:42:51;;;;;;;1.95;0.70;;;8.80;85.40;;;;;;5035583;28;20191;-77
2021/03/19 11:45:25;;;;;;;3.80;0.65;;;8.50;83.10;;;;;;5029743;28;20040;-80
2021/03/19 11:47:57;;;;;;;2.63;0.68;;;8.70;90.40;;;;;;5030205;28;20488;-77
2021/03/19 11:50:23;;;;;;;1.85;0.60;;;8.90;88.10;;;;;;5032943;28;20044;-81
2021/03/19 11:53:16;;;;;;;4.43;0.70;;;8.90;87.80;;;;;;5021345;28;20056;-77
2021/03/19 11:56:02;;;;;;;2.10;0.50;;;8.70;92.80;;;;;;5037142;28;20044;-75
2021/03/19 11:58:30;;;;;;;3.53;0.70;;;8.90;93.60;;;;;;5050370;28;20036;-77
2021/03/19 12:01:16;;;;;;;6.55;0.75;;;8.70;95.20;;;;;;5027399;28;20043;-77
2021/03/19 12:04:03;;;;;;;2.20;0.90;;;8.50;96.40;;;;;;5035031;28;20041;-79
2021/03/19 12:06:50;;;;;;;3.10;0.70;;;8.70;95.50;;;;;;5111148;27;20042;-77
2021/03/19 12:09:37;;;;;;;3.35;0.57;;;8.60;94.70;;;;;;5124725;27;20043;-78
2021/03/19 12:12:03;;;;;;;1.67;0.47;;;8.60;93.70;;;;;;5132649;27;20363;-78
2021/03/19 12:14:29;;;;;;;1.48;0.50;;;8.80;94.80;;;;;;5155625;27;20031;-80
2021/03/19 12:16:55;;;;;;;3.20;0.60;;;8.90;90.20;;;;;;5153994;27;20039;-78
2021/03/19 12:19:22;;;;;;;0.85;0.30;;;9.20;87.30;;;;;;5136287;27;20069;-77
2021/03/19 12:21:48;;;;;;;6.75;0.70;;;9.10;86.20;;;;;;5130679;27;20078;-78
2021/03/19 12:24:15;;;;;;;1.02;0.50;;;9.00;89.60;;;;;;5156278;27;20493;-78
2021/03/19 12:26:40;;;;;;;2.20;0.45;;;9.00;87.30;;;;;;5156429;27;20031;-78
2021/03/19 12:29:06;;;;;;;2.58;0.45;;;9.20;86.40;;;;;;5156069;27;20121;-78
2021/03/19 12:31:32;;;;;;;1.60;0.40;;;9.30;78.80;;;;;;5137625;27;20066;-78
2021/03/19 12:34:17;;;;;;;1.60;0.43;;;9.30;83.00;;;;;;5148903;27;20054;-78
2021/03/19 12:36:43;;;;;;;0.93;0.30;;;9.50;76.00;;;;;;5154406;27;20038;-78
2021/03/19 12:39:09;;;;;;;0.90;0.20;;;9.30;75.70;;;;;;5155521;27;20031;-78
2021/03/19 12:41:35;;;;;;;2.42;0.30;;;8.90;76.10;;;;;;5119885;27;20058;-77
2021/03/19 12:44:00;;;;;;;3.03;0.50;;;9.30;76.90;;;;;;5139899;27;20129;-78
2021/03/19 12:46:46;;;;;;;1.05;0.30;;;9.60;69.30;;;;;;5140944;27;20478;-78
2021/03/19 12:49:12;;;;;;;1.15;0.40;;;9.40;72.50;;;;;;5137604;27;20088;-77
2021/03/19 12:51:38;;;;;;;0.82;0.40;;;9.40;74.70;;;;;;5155943;27;20035;-79
2021/03/19 12:54:24;;;;;;;1.35;0.50;;;9.60;80.00;;;;;;5126939;27;20042;-79
2021/03/19 12:56:50;;;;;;;1.45;0.35;;;9.80;73.10;;;;;;5136917;27;20425;-78
2021/03/19 12:59:16;;;;;;;0.50;0.25;;;9.80;71.40;;;;;;5137626;27;20042;-77
2021/03/19 13:01:42;;;;;;;2.47;0.30;;;10.00;69.10;;;;;;5136132;27;20065;-77
2021/03/19 13:04:08;;;;;;;3.33;0.32;;;9.80;68.60;;;;;;5139408;27;20396;-79
2021/03/19 13:06:34;;;;;;;2.65;0.30;;;9.80;67.90;;;;;;5155046;27;20092;-78
2021/03/19 13:09:00;;;;;;;1.65;0.38;;;10.00;68.20;;;;;;5155568;27;20035;-79
2021/03/19 13:11:26;;;;;;;1.02;0.20;;;9.90;64.80;;;;;;5154819;27;20035;-79
2021/03/19 13:13:51;;;;;;;1.88;0.47;;;9.60;66.10;;;;;;5155602;27;20034;-79
2021/03/19 13:16:18;;;;;;;0.80;0.30;;;10.00;67.00;;;;;;5135939;27;20047;-79
2021/03/19 13:19:06;;;;;;;4.18;0.35;;;9.70;65.90;;;;;;5139421;27;20077;-78
2021/03/19 13:21:33;;;;;;;0.68;0.20;;;9.80;63.00;;;;;;5135012;27;20047;-78
2021/03/19 13:24:20;;;;;;;1.05;0.40;;;10.00;62.40;;;;;;5139691;27;20046;-78
2021/03/19 13:26:46;;;;;;;2.10;0.60;;;10.10;66.20;;;;;;5154885;27;20050;-80
2021/03/19 13:29:13;;;;;;;2.58;0.50;;;10.20;70.70;;;;;;5136412;27;20066;-80
2021/03/19 13:31:40;;;;;;;1.08;0.40;;;10.10;73.50;;;;;;5135749;27;20470;-79
2021/03/19 13:34:26;;;;;;;1.65;0.50;;;10.00;69.10;;;;;;5125154;27;20506;-78
2021/03/19 13:37:11;;;;;;;1.45;0.60;;;9.80;74.00;;;;;;5124434;27;20049;-80
2021/03/19 13:39:37;;;;;;;0.95;0.30;;;9.70;75.40;;;;;;5135620;27;20047;-80
2021/03/19 13:42:07;;;;;;;0.95;0.32;;;10.00;71.20;;;;;;5132431;27;20051;-77
2021/03/19 13:44:37;;;;;;;2.85;0.50;;;10.00;69.70;;;;;;5148309;27;20034;-79
2021/03/19 13:47:04;;;;;;;3.13;0.60;;;10.00;71.10;;;;;;5152774;27;20050;-77
2021/03/19 13:49:34;;;;;;;2.53;0.77;;;10.10;70.90;;;;;;5153916;27;20453;-79
2021/03/19 13:52:01;;;;;;;4.05;1.00;;;10.20;83.60;;;;;;5153240;27;20031;-79
2021/03/19 13:54:27;;;;;;;2.00;0.65;;;10.10;90.40;;;;;;5142612;27;20212;-78